Grimes, IA (50111)

1:54 PM CDT on May 25, 2017 (GMT -0500)
Grimes | | Change Station
Active Advisory: Flood Warning Active Notice: Public Information Statement

Elev 974 ft 41.69 °N, 93.79 °W | Updated 28 seconds ago

Clear
Clear
71.9 °F
Feels Like 77 °F
N
0.0
Wind Variable Wind from East

Today
High -- | Low -- °F
--% Chance of Precip.
Yesterday
High -- | Low -- °F
Precip. -- in
Pressure 29.68 in
Visibility 10.0 miles
Clouds Clear
Heat Index 77 °F
Dew Point 51 °F
Humidity 48%
Rainfall 0.00 in
Snow Depth Not available.
5:46 AM 8:37 PM
Waning Crescent, 0% visible
METAR KIKV 251835Z AUTO 18011KT 10SM CLR 20/10 A2968 RMK AO2
Pressure 29.68 in
Visibility 10.0 miles
Clouds Clear
Heat Index 77 °F
Dew Point 51 °F
Humidity 48%
Rainfall 0.00 in
Snow Depth Not available.
5:46 AM 8:37 PM
Waning Crescent, 0% visible
METAR KIKV 251835Z AUTO 18011KT 10SM CLR 20/10 A2968 RMK AO2

Get Your Daily Forecast Email!

Thanks for signing up!

Be on the lookout for a verification email in your inbox.

You'll start receiving severe weather alerts in your inbox..

×

10-Day Weather Forecast

Almanac

Astronomy

May. 25, 2017 Rise Set
Actual Time
Civil Twilight
Nautical Twilight
Astronomical Twilight
Moon
Length of Visible Light
Length of Day
Tomorrow will be .
, % of the Moon is Illuminated

Today's Extremes

State Highs State Lows

Community

WunderPhotos

Category 6

Welcome to Category 6. This is the collective home for Weather Underground's featured writeups by Dr. Jeff Masters (right), Bob Henson (left), Chris Burt, and other regular contributors.

Nearby

Air Quality

  Air Quality AQ Index Pollutant
Not available.

Snow Depth

Station Depth Elevation

Earthquake Activity

City Distance Mag. Time & Date
Minimum magnitude displayed is 2.5.

Coastal Water Temperatures

Place Temperature

Stations

Nearby Weather Stations

Station Location Temp. Windchill Dew Point Humidity Wind Precip. Elev Updated Type
                   

Watches & Warnings

Flood Warning
Issued: 10:52 AM CDT May. 25, 2017 – National Weather Service

... Flood Warning remains in effect until this evening...

The Flood Warning continues for
the Des Moines River at Des Moines se 6th St... or from below the
center street dam... to Runnells.
* Until this evening.
* At 10:00 am Thursday the stage was 24.0 feet... or 0.0 feet below
flood stage.
* Flood stage is 24.0 feet.
* No flooding is occurring and minor flooding is forecast.
* Forecast... rise to flood stage this afternoon.
* Impact... at 24.0 feet... the bike trail is closed east of Water
Street. Portions of other bike trails are also affected.


Lat... Lon 4159 9356 4152 9333 4145 9333 4154 9356
      4159 9366 4159 9356